createdAt,value
2022-10-23T00:01:36.546Z,97431.81
2022-10-23T00:04:11.310Z,97428.38
2022-10-23T00:06:38.407Z,97422.97
2022-10-23T00:09:10.468Z,97419.66
2022-10-23T00:11:37.715Z,97406.38
2022-10-23T00:14:06.764Z,97412.75
2022-10-23T00:16:35.241Z,97413.19
2022-10-23T00:19:02.652Z,97405.94
2022-10-23T00:21:30.052Z,97417.03
2022-10-23T00:23:57.449Z,97409.84
2022-10-23T00:26:24.949Z,97406.28
2022-10-23T00:28:54.786Z,97396.28
2022-10-23T00:31:23.698Z,97401.28
2022-10-23T00:33:52.055Z,97405.13
2022-10-23T00:36:22.862Z,97420.03
2022-10-23T00:38:51.096Z,97413.69
2022-10-23T00:41:24.283Z,97423.13
2022-10-23T00:44:20.339Z,97424.91
2022-10-23T00:46:47.777Z,97435.41
2022-10-23T00:49:16.011Z,97422.53
2022-10-23T00:51:57.163Z,97445.59
2022-10-23T00:54:27.530Z,97435.81
2022-10-23T00:56:58.945Z,97438.53
2022-10-23T00:59:26.693Z,97439.59
2022-10-23T01:01:53.825Z,97451.91
2022-10-23T01:04:22.070Z,97451.22
2022-10-23T01:07:14.300Z,97451.47
2022-10-23T01:09:47.834Z,97448.50
2022-10-23T01:12:25.120Z,97460.88
2022-10-23T01:15:10.429Z,97461.72
2022-10-23T01:17:46.062Z,97461.97
2022-10-23T01:20:40.354Z,97464.59
2022-10-23T01:23:39.582Z,97467.44
2022-10-23T01:26:18.443Z,97463.84
2022-10-23T01:28:52.304Z,97470.81
2022-10-23T01:31:29.540Z,97460.34
2022-10-23T01:34:00.810Z,97473.19
2022-10-23T01:36:30.280Z,97483.34
2022-10-23T01:41:58.772Z,97498.72
2022-10-23T01:44:36.412Z,97497.88
2022-10-23T01:47:07.317Z,97504.22
2022-10-23T01:49:36.645Z,97496.72
2022-10-23T01:52:08.991Z,97497.31
2022-10-23T01:54:41.002Z,97495.63
2022-10-23T01:57:14.677Z,97505.75
2022-10-23T01:59:56.484Z,97517.09
2022-10-23T02:02:26.788Z,97518.31
2022-10-23T02:05:06.740Z,97525.22
2022-10-23T02:07:35.309Z,97527.00
2022-10-23T02:10:07.586Z,97539.53
2022-10-23T02:12:50.344Z,97531.22
2022-10-23T02:15:38.174Z,97542.06
2022-10-23T02:18:22.748Z,97534.31
2022-10-23T02:21:00.937Z,97546.84
2022-10-23T02:23:55.335Z,97558.41
2022-10-23T02:26:33.625Z,97567.00
2022-10-23T02:29:21.754Z,97572.50
2022-10-23T02:31:48.784Z,97578.22
2022-10-23T02:34:15.753Z,97582.16
2022-10-23T02:36:43.192Z,97586.44
2022-10-23T02:39:10.419Z,97591.81
2022-10-23T02:41:44.772Z,97584.66
2022-10-23T02:44:33.755Z,97602.69
2022-10-23T02:47:21.784Z,97610.44
2022-10-23T02:50:33.472Z,97616.16
2022-10-23T02:53:32.863Z,97630.47
2022-10-23T02:56:13.447Z,97634.06
2022-10-23T02:58:48.328Z,97644.09
2022-10-23T03:01:20.442Z,97645.53
2022-10-23T03:03:56.123Z,97654.38
2022-10-23T03:06:24.068Z,97661.03
2022-10-23T03:09:00.329Z,97661.28
2022-10-23T03:11:27.249Z,97667.50
2022-10-23T03:13:54.495Z,97662.94
2022-10-23T03:16:21.548Z,97672.38
2022-10-23T03:18:48.939Z,97687.31
2022-10-23T03:21:15.879Z,97683.84
2022-10-23T03:23:42.868Z,97687.53
2022-10-23T03:26:09.901Z,97679.53
2022-10-23T03:28:36.972Z,97687.31
2022-10-23T03:31:05.309Z,97683.94
2022-10-23T03:33:33.547Z,97685.50
2022-10-23T03:36:00.480Z,97677.72
2022-10-23T03:38:27.587Z,97695.16
2022-10-23T03:40:54.653Z,97697.31
2022-10-23T03:43:21.843Z,97699.09
2022-10-23T03:45:48.897Z,97703.28
2022-10-23T03:48:15.902Z,97692.78
2022-10-23T03:50:42.811Z,97704.47
2022-10-23T03:53:10.064Z,97691.78
2022-10-23T03:55:37.089Z,97695.72
2022-10-23T03:58:04.033Z,97700.41
2022-10-23T04:00:31.113Z,97697.97
2022-10-23T04:02:58.179Z,97706.34
2022-10-23T04:05:25.166Z,97704.91
2022-10-23T04:07:52.229Z,97697.03
2022-10-23T04:10:19.179Z,97695.91
2022-10-23T04:12:46.443Z,97704.59
2022-10-23T04:15:13.485Z,97692.44
2022-10-23T04:17:40.562Z,97688.34
2022-10-23T04:20:07.669Z,97699.44
2022-10-23T04:22:34.769Z,97688.94
2022-10-23T04:25:01.741Z,97696.19
2022-10-23T04:27:29.159Z,97687.59
2022-10-23T04:29:58.338Z,97691.19
2022-10-23T04:32:28.523Z,97700.38
2022-10-23T04:34:55.844Z,97699.44
2022-10-23T04:37:23.542Z,97704.13
2022-10-23T04:39:50.743Z,97706.06
2022-10-23T04:42:18.162Z,97703.78
2022-10-23T04:44:45.322Z,97708.72
2022-10-23T04:47:12.262Z,97708.72
2022-10-23T04:49:39.633Z,97702.88
2022-10-23T04:52:06.976Z,97709.78
2022-10-23T04:54:38.187Z,97718.38
2022-10-23T04:57:05.595Z,97710.63
2022-10-23T04:59:32.597Z,97702.88
2022-10-23T05:01:59.745Z,97708.69
2022-10-23T05:04:26.772Z,97717.75
2022-10-23T05:06:53.951Z,97736.63
2022-10-23T05:09:22.586Z,97728.00
2022-10-23T05:11:49.721Z,97727.78
2022-10-23T05:14:20.641Z,97735.19
2022-10-23T05:17:00.145Z,97728.75
2022-10-23T05:19:36.661Z,97726.97
2022-10-23T05:22:06.151Z,97726.53
2022-10-23T05:24:33.098Z,97739.69
2022-10-23T05:27:00.161Z,97746.13
2022-10-23T05:29:27.258Z,97742.78
2022-10-23T05:31:59.194Z,97738.97
2022-10-23T05:34:28.568Z,97735.47
2022-10-23T05:37:14.526Z,97731.59
2022-10-23T05:39:41.950Z,97739.09
2022-10-23T05:42:09.058Z,97733.91
2022-10-23T05:44:37.103Z,97741.06
2022-10-23T05:47:04.199Z,97729.94
2022-10-23T05:49:31.082Z,97733.03
2022-10-23T05:51:58.139Z,97743.78
2022-10-23T05:54:25.215Z,97741.19
2022-10-23T05:56:52.172Z,97744.72
2022-10-23T05:59:22.080Z,97746.59
2022-10-23T06:01:50.185Z,97746.00
2022-10-23T06:04:17.375Z,97759.78
2022-10-23T06:06:46.885Z,97760.13
2022-10-23T06:09:14.982Z,97751.88
2022-10-23T06:11:42.707Z,97739.13
2022-10-23T06:14:09.683Z,97752.13
2022-10-23T06:16:36.842Z,97753.16
2022-10-23T06:19:03.890Z,97760.13
2022-10-23T06:21:30.839Z,97765.94
2022-10-23T06:23:58.418Z,97757.34
2022-10-23T06:26:25.572Z,97765.50
2022-10-23T06:28:52.787Z,97772.22
2022-10-23T06:31:20.585Z,97768.56
2022-10-23T06:33:47.320Z,97760.00
2022-10-23T06:36:14.805Z,97758.09
2022-10-23T06:38:41.818Z,97765.94
2022-10-23T06:41:14.457Z,97765.84
2022-10-23T06:43:41.755Z,97768.38
2022-10-23T06:46:09.096Z,97771.38
2022-10-23T06:48:36.267Z,97758.91
2022-10-23T06:51:08.324Z,97761.94
2022-10-23T06:53:36.167Z,97767.59
2022-10-23T06:56:03.935Z,97765.44
2022-10-23T06:58:31.782Z,97784.88
2022-10-23T07:01:02.821Z,97777.88
2022-10-23T07:03:30.751Z,97795.84
2022-10-23T07:06:00.185Z,97795.47
2022-10-23T07:08:27.121Z,97784.31
2022-10-23T07:10:54.407Z,97789.44
2022-10-23T07:13:22.744Z,97786.78
2022-10-23T07:15:49.621Z,97789.47
2022-10-23T07:18:17.428Z,97792.59
2022-10-23T07:20:44.304Z,97786.91
2022-10-23T07:23:12.363Z,97784.06
2022-10-23T07:25:39.428Z,97781.00
2022-10-23T07:28:06.340Z,97785.97
2022-10-23T07:30:33.892Z,97786.59
2022-10-23T07:33:00.867Z,97778.16
2022-10-23T07:35:33.002Z,97778.69
2022-10-23T07:38:02.766Z,97790.59
2022-10-23T07:40:29.814Z,97784.34
2022-10-23T07:42:57.229Z,97804.34
2022-10-23T07:45:24.159Z,97804.19
2022-10-23T07:47:52.412Z,97807.69
2022-10-23T07:50:19.879Z,97799.88
2022-10-23T07:52:47.159Z,97809.84
2022-10-23T07:55:14.729Z,97809.69
2022-10-23T07:57:41.652Z,97809.75
2022-10-23T08:00:10.265Z,97807.66
2022-10-23T08:02:37.919Z,97810.63
2022-10-23T08:05:05.007Z,97816.66
2022-10-23T08:07:32.254Z,97813.69
2022-10-23T08:09:59.887Z,97807.47
2022-10-23T08:12:27.242Z,97801.59
2022-10-23T08:14:54.499Z,97815.13
2022-10-23T08:17:23.977Z,97810.72
2022-10-23T08:19:53.414Z,97810.81
2022-10-23T08:22:20.422Z,97816.56
2022-10-23T08:24:47.405Z,97817.19
2022-10-23T08:27:14.328Z,97818.94
2022-10-23T08:29:41.480Z,97816.41
2022-10-23T08:32:08.375Z,97819.56
2022-10-23T08:34:38.048Z,97810.66
2022-10-23T08:37:05.344Z,97799.00
2022-10-23T08:39:32.387Z,97810.97
2022-10-23T08:41:59.478Z,97794.91
2022-10-23T08:44:52.916Z,97789.84
2022-10-23T08:47:39.336Z,97779.38
2022-10-23T08:50:23.301Z,97810.63
2022-10-23T08:53:05.671Z,97804.94
2022-10-23T08:55:41.129Z,97801.72
2022-10-23T08:58:16.881Z,97805.03
2022-10-23T09:00:46.925Z,97810.50
2022-10-23T09:03:14.511Z,97804.81
2022-10-23T09:06:07.839Z,97801.59
2022-10-23T09:08:48.536Z,97813.56
2022-10-23T09:11:21.254Z,97808.09
2022-10-23T09:13:50.950Z,97814.47
2022-10-23T09:16:26.726Z,97798.28
2022-10-23T09:18:55.133Z,97793.56
2022-10-23T09:21:27.250Z,97802.19
2022-10-23T09:23:54.211Z,97790.38
2022-10-23T09:26:22.188Z,97809.94
2022-10-23T09:28:52.521Z,97798.91
2022-10-23T09:31:19.888Z,97793.28
2022-10-23T09:34:01.499Z,97803.31
2022-10-23T09:36:29.732Z,97803.06
2022-10-23T09:38:59.348Z,97791.56
2022-10-23T09:41:40.584Z,97797.91
2022-10-23T09:44:21.584Z,97790.38
2022-10-23T09:47:00.054Z,97783.25
2022-10-23T09:49:34.466Z,97764.47
2022-10-23T09:52:08.097Z,97765.47
2022-10-23T09:54:40.650Z,97757.00
2022-10-23T09:57:29.416Z,97753.78
2022-10-23T10:00:02.405Z,97756.38
2022-10-23T10:02:34.804Z,97753.94
2022-10-23T10:05:23.985Z,97751.53
2022-10-23T10:08:06.222Z,97752.44
2022-10-23T10:10:42.577Z,97743.03
2022-10-23T10:13:35.570Z,97755.47
2022-10-23T10:16:21.053Z,97761.84
2022-10-23T10:18:59.091Z,97755.59
2022-10-23T10:21:46.664Z,97747.84
2022-10-23T10:24:25.595Z,97759.34
2022-10-23T10:27:21.038Z,97753.03
2022-10-23T10:30:06.949Z,97752.00
2022-10-23T10:32:52.659Z,97740.53
2022-10-23T10:35:23.397Z,97735.81
2022-10-23T10:38:10.558Z,97748.03
2022-10-23T10:40:50.503Z,97744.00
2022-10-23T10:43:49.455Z,97731.66
2022-10-23T10:46:33.777Z,97742.81
2022-10-23T10:49:13.143Z,97737.28
2022-10-23T10:52:11.572Z,97731.22
2022-10-23T10:54:57.515Z,97718.06
2022-10-23T10:58:00.273Z,97731.09
2022-10-23T11:00:30.316Z,97720.91
2022-10-23T11:03:39.853Z,97722.88
2022-10-23T11:06:15.438Z,97726.63
2022-10-23T11:08:56.339Z,97724.31
2022-10-23T11:11:37.825Z,97717.25
2022-10-23T11:14:05.245Z,97717.44
2022-10-23T11:16:40.399Z,97719.97
2022-10-23T11:19:14.219Z,97718.06
2022-10-23T11:22:33.987Z,97718.88
2022-10-23T11:25:25.218Z,97713.31
2022-10-23T11:28:17.419Z,97720.81
2022-10-23T11:31:30.022Z,97718.00
2022-10-23T11:34:06.278Z,97711.75
2022-10-23T11:36:44.797Z,97713.63
2022-10-23T11:39:21.076Z,97720.28
2022-10-23T11:42:16.122Z,97706.88
2022-10-23T11:44:43.386Z,97713.13
2022-10-23T11:47:36.422Z,97710.69
2022-10-23T11:50:09.016Z,97716.25
2022-10-23T11:52:50.321Z,97728.66
2022-10-23T11:55:26.673Z,97722.06
2022-10-23T11:58:05.563Z,97714.22
2022-10-23T12:00:35.480Z,97713.97
2022-10-23T12:03:03.148Z,97714.81
2022-10-23T12:05:38.068Z,97709.22
2022-10-23T12:08:17.425Z,97701.75
2022-10-23T12:10:47.123Z,97714.41
2022-10-23T12:13:39.099Z,97704.75
2022-10-23T12:16:10.651Z,97721.72
2022-10-23T12:18:54.523Z,97710.50
2022-10-23T12:21:28.674Z,97717.22
2022-10-23T12:24:25.960Z,97694.50
2022-10-23T12:27:00.778Z,97709.31
2022-10-23T12:29:52.564Z,97709.38
2022-10-23T12:32:25.684Z,97711.22
2022-10-23T12:35:24.702Z,97716.78
2022-10-23T12:38:08.258Z,97713.09
2022-10-23T12:40:35.723Z,97716.72
2022-10-23T12:43:02.664Z,97722.44
2022-10-23T12:45:37.253Z,97723.06
2022-10-23T12:48:04.467Z,97720.16
2022-10-23T12:50:35.630Z,97714.19
2022-10-23T12:53:06.937Z,97719.75
2022-10-23T12:58:33.400Z,97722.16
2022-10-23T13:01:04.015Z,97719.56
2022-10-23T13:03:33.492Z,97726.91
2022-10-23T13:06:04.882Z,97721.81
2022-10-23T13:08:42.257Z,97726.69
2022-10-23T13:11:17.060Z,97715.94
2022-10-23T13:13:44.433Z,97728.88
2022-10-23T13:16:16.477Z,97720.91
2022-10-23T13:18:43.883Z,97725.25
2022-10-23T13:21:31.215Z,97726.25
2022-10-23T13:23:58.605Z,97724.59
2022-10-23T13:26:45.413Z,97720.19
2022-10-23T13:29:23.253Z,97725.91
2022-10-23T13:31:50.657Z,97729.25
2022-10-23T13:34:27.354Z,97718.72
2022-10-23T13:37:22.044Z,97719.56
2022-10-23T13:40:05.155Z,97708.59
2022-10-23T13:42:32.377Z,97710.56
2022-10-23T13:44:59.880Z,97715.44
2022-10-23T13:47:27.870Z,97716.94
2022-10-23T13:49:54.930Z,97726.50
2022-10-23T13:52:24.005Z,97722.72
2022-10-23T13:54:52.945Z,97718.22
2022-10-23T13:57:20.218Z,97715.63
2022-10-23T13:59:57.834Z,97719.78
2022-10-23T14:02:52.385Z,97717.69
2022-10-23T14:05:26.343Z,97718.06
2022-10-23T14:07:58.963Z,97728.06
2022-10-23T14:10:31.039Z,97728.47
2022-10-23T14:12:58.625Z,97723.19
2022-10-23T14:15:26.550Z,97714.91
2022-10-23T14:17:59.083Z,97707.81
2022-10-23T14:20:28.467Z,97709.66
2022-10-23T14:23:05.858Z,97714.06
2022-10-23T14:25:32.985Z,97715.00
2022-10-23T14:28:00.990Z,97712.84
2022-10-23T14:30:28.280Z,97721.88
2022-10-23T14:32:55.480Z,97738.25
2022-10-23T14:35:36.738Z,97724.63
2022-10-23T14:38:04.048Z,97731.97
2022-10-23T14:40:31.322Z,97715.41
2022-10-23T14:42:58.632Z,97730.09
2022-10-23T14:45:39.507Z,97723.47
2022-10-23T14:48:06.932Z,97729.16
2022-10-23T14:50:36.608Z,97738.06
2022-10-23T14:53:04.508Z,97728.28
2022-10-23T14:55:31.556Z,97732.03
2022-10-23T14:57:58.778Z,97726.44
2022-10-23T15:00:25.727Z,97735.66
2022-10-23T15:02:52.816Z,97733.28
2022-10-23T15:05:20.346Z,97732.56
2022-10-23T15:07:47.514Z,97730.44
2022-10-23T15:10:15.014Z,97742.84
2022-10-23T15:12:42.452Z,97740.84
2022-10-23T15:15:10.117Z,97737.22
2022-10-23T15:17:39.277Z,97739.09
2022-10-23T15:20:08.130Z,97741.31
2022-10-23T15:22:35.158Z,97755.63
2022-10-23T15:25:02.572Z,97745.00
2022-10-23T15:27:29.453Z,97747.81
2022-10-23T15:29:56.431Z,97751.91
2022-10-23T15:32:23.716Z,97760.34
2022-10-23T15:34:52.429Z,97759.81
2022-10-23T15:37:19.519Z,97766.44
2022-10-23T15:39:46.621Z,97764.06
2022-10-23T15:42:13.952Z,97767.94
2022-10-23T15:44:41.619Z,97771.97
2022-10-23T15:47:08.927Z,97769.47
2022-10-23T15:49:37.108Z,97775.94
2022-10-23T15:52:05.123Z,97777.41
2022-10-23T15:54:33.090Z,97777.50
2022-10-23T15:57:00.565Z,97780.72
2022-10-23T15:59:28.399Z,97787.56
2022-10-23T16:01:55.963Z,97780.81
2022-10-23T16:04:23.580Z,97783.00
2022-10-23T16:06:50.730Z,97777.25
2022-10-23T16:09:17.832Z,97787.44
2022-10-23T16:11:45.203Z,97787.03
2022-10-23T16:14:14.500Z,97784.59
2022-10-23T16:16:41.835Z,97791.34
2022-10-23T16:19:10.867Z,97794.56
2022-10-23T16:21:38.099Z,97795.31
2022-10-23T16:24:07.926Z,97797.88
2022-10-23T16:26:36.089Z,97802.06
2022-10-23T16:29:06.154Z,97803.94
2022-10-23T16:31:33.522Z,97805.63
2022-10-23T16:34:02.335Z,97803.84
2022-10-23T16:36:30.000Z,97808.19
2022-10-23T16:38:58.370Z,97811.69
2022-10-23T16:41:25.636Z,97806.56
2022-10-23T16:43:52.875Z,97813.41
2022-10-23T16:46:22.011Z,97820.09
2022-10-23T16:48:51.085Z,97825.09
2022-10-23T16:51:21.072Z,97821.72
2022-10-23T16:53:48.505Z,97823.41
2022-10-23T16:56:18.801Z,97836.50
2022-10-23T16:58:45.837Z,97850.13
2022-10-23T17:01:19.121Z,97840.13
2022-10-23T17:03:50.587Z,97849.56
2022-10-23T17:06:20.427Z,97848.44
2022-10-23T17:08:48.386Z,97848.16
2022-10-23T17:11:25.521Z,97853.59
2022-10-23T17:13:59.324Z,97854.66
2022-10-23T17:16:34.982Z,97868.44
2022-10-23T17:19:03.138Z,97863.53
2022-10-23T17:21:36.826Z,97877.84
2022-10-23T17:24:05.543Z,97866.84
2022-10-23T17:26:34.644Z,97862.81
2022-10-23T17:29:03.370Z,97858.34
2022-10-23T17:31:34.316Z,97874.88
2022-10-23T17:34:04.547Z,97870.22
2022-10-23T17:36:34.387Z,97869.94
2022-10-23T17:39:02.051Z,97882.41
2022-10-23T17:41:29.323Z,97874.63
2022-10-23T17:43:58.655Z,97873.19
2022-10-23T17:46:26.979Z,97875.16
2022-10-23T17:48:56.800Z,97878.06
2022-10-23T17:51:26.290Z,97881.47
2022-10-23T17:53:56.442Z,97881.47
2022-10-23T17:59:26.333Z,97881.97
2022-10-23T18:02:04.776Z,97884.69
2022-10-23T18:04:34.567Z,97882.16
2022-10-23T18:07:07.441Z,97880.88
2022-10-23T18:09:46.802Z,97887.88
2022-10-23T18:15:35.368Z,97894.19
2022-10-23T18:18:10.878Z,97896.00
2022-10-23T18:20:45.646Z,97895.66
2022-10-23T18:23:12.700Z,97893.53
2022-10-23T18:25:43.566Z,97892.56
2022-10-23T18:28:10.650Z,97899.53
2022-10-23T18:30:40.802Z,97901.47
2022-10-23T18:33:07.816Z,97899.81
2022-10-23T18:35:38.329Z,97904.25
2022-10-23T18:38:05.644Z,97900.16
2022-10-23T18:40:34.068Z,97902.56
2022-10-23T18:43:01.141Z,97904.25
2022-10-23T18:45:32.090Z,97892.84
2022-10-23T18:47:59.176Z,97905.31
2022-10-23T18:50:26.705Z,97903.66
2022-10-23T18:52:54.123Z,97901.75
2022-10-23T18:55:21.494Z,97900.34
2022-10-23T18:57:48.394Z,97901.22
2022-10-23T19:00:15.910Z,97897.75
2022-10-23T19:02:43.133Z,97901.22
2022-10-23T19:05:10.186Z,97899.66
2022-10-23T19:07:37.168Z,97909.72
2022-10-23T19:10:04.614Z,97901.84
2022-10-23T19:12:31.651Z,97908.16
2022-10-23T19:15:02.055Z,97901.25
2022-10-23T19:17:32.403Z,97908.31
2022-10-23T19:20:07.811Z,97906.66
2022-10-23T19:22:36.461Z,97901.03
2022-10-23T19:25:28.112Z,97898.63
2022-10-23T19:27:57.152Z,97903.66
2022-10-23T19:30:24.932Z,97908.19
2022-10-23T19:32:52.685Z,97905.94
2022-10-23T19:35:21.312Z,97913.09
2022-10-23T19:40:35.085Z,97857.66
2022-10-23T19:44:21.845Z,97917.66
2022-10-23T19:47:13.743Z,97926.50
2022-10-23T19:50:07.984Z,97924.81
2022-10-23T19:52:41.889Z,97921.34
2022-10-23T19:55:13.217Z,97919.19
2022-10-23T19:57:41.727Z,97919.19
2022-10-23T20:00:09.707Z,97927.69
2022-10-23T20:05:06.664Z,97929.94
2022-10-23T20:07:35.571Z,97937.13
2022-10-23T20:10:03.632Z,97929.34
2022-10-23T20:12:37.950Z,97938.91
2022-10-23T20:15:05.476Z,97942.72
2022-10-23T20:17:32.845Z,97941.28
2022-10-23T20:20:03.185Z,97943.91
2022-10-23T20:22:30.180Z,97941.53
2022-10-23T20:24:59.062Z,97943.88
2022-10-23T20:27:29.958Z,97947.94
2022-10-23T20:29:57.165Z,97947.09
2022-10-23T20:32:33.466Z,97937.63
2022-10-23T20:35:00.929Z,97941.47
2022-10-23T20:37:27.991Z,97935.38
2022-10-23T20:39:56.077Z,97946.34
2022-10-23T20:43:43.742Z,97945.75
2022-10-23T20:49:32.764Z,97941.38
2022-10-23T20:57:04.396Z,97938.31
2022-10-23T21:06:31.531Z,97952.50
2022-10-23T21:09:29.745Z,97947.88
2022-10-23T21:12:48.692Z,97954.09
2022-10-23T21:15:58.100Z,97953.34
2022-10-23T21:18:51.205Z,97952.53
2022-10-23T21:21:35.081Z,97948.09
2022-10-23T21:24:31.662Z,97952.66
2022-10-23T21:27:59.970Z,97949.72
2022-10-23T21:33:36.665Z,97947.75
2022-10-23T21:48:42.686Z,97942.16
2022-10-23T21:54:54.404Z,97940.28
2022-10-23T21:57:55.203Z,97927.78
2022-10-23T22:00:42.942Z,97929.69
2022-10-23T22:04:15.418Z,97931.59
2022-10-23T22:06:52.832Z,97925.38
2022-10-23T22:10:05.544Z,97921.16
2022-10-23T22:22:00.962Z,97916.56
2022-10-23T22:24:40.248Z,97921.06
2022-10-23T22:27:08.887Z,97914.25
2022-10-23T22:29:45.543Z,97921.06
2022-10-23T22:32:16.489Z,97921.19
2022-10-23T22:34:53.079Z,97914.25
2022-10-23T22:37:27.817Z,97910.91
2022-10-23T22:40:36.335Z,97912.91
2022-10-23T22:43:12.705Z,97913.25
2022-10-23T22:46:30.548Z,97918.47
2022-10-23T22:49:31.706Z,97917.53
2022-10-23T22:55:22.306Z,97922.06
2022-10-23T22:58:06.888Z,97917.13
2022-10-23T23:03:32.645Z,97913.66
2022-10-23T23:06:45.039Z,97917.22
2022-10-23T23:09:20.445Z,97919.97
2022-10-23T23:12:23.325Z,97923.50
2022-10-23T23:15:03.292Z,97927.09
2022-10-23T23:17:34.341Z,97926.44
2022-10-23T23:23:18.925Z,97930.22
2022-10-23T23:29:00.191Z,97924.34
2022-10-23T23:31:28.770Z,97916.81
2022-10-23T23:34:00.139Z,97919.31
2022-10-23T23:36:30.177Z,97927.09
2022-10-23T23:38:59.351Z,97925.19
2022-10-23T23:41:52.874Z,97925.41
2022-10-23T23:44:28.303Z,97913.25
2022-10-23T23:52:28.094Z,97915.53
2022-10-23T23:55:18.299Z,97916.47
2022-10-23T23:57:54.974Z,97915.75
